Cordova, Maryland
Current Conditions -  °F | °C
As of 11:25 PM on Wednesday 22 Oct 2014 (Local Time) from KESN Reporting Station
Overcast Overcast  
Wind Chill: 56°   Ceiling: 3100
Heat Index: 56°   Visibility: 10mi
Dew Point: 49°   Wind: 14mph
Humidity: 79%   Direction: 360°N
Pressure: 29.9"   Gusts: 26mph
Location:  38.88°N, 76°W
Report Text: KESN 230325Z AUTO 36012G23KT 10SM OVC031 13/10 A2990 RMK AO2 T01310096
Loading
Personal Weather Stations






























Interactive Weather Map
Tropical Storm Tracking
New forecast layout! Learn more

10-Day Weather Forecast

Advertisements
Track Severe Weather on mobile